sensor_id;sensor_type;location;lat;lon;timestamp;temperature;humidity
18446;DHT22;9352;50.888;4.466;2024-02-28T00:02:24;4.50;99.90
18446;DHT22;9352;50.888;4.466;2024-02-28T00:04:53;4.50;99.90
18446;DHT22;9352;50.888;4.466;2024-02-28T00:07:20;4.50;99.90
18446;DHT22;9352;50.888;4.466;2024-02-28T00:09:47;4.40;99.90
18446;DHT22;9352;50.888;4.466;2024-02-28T00:12:14;4.50;99.90
18446;DHT22;9352;50.888;4.466;2024-02-28T00:14:41;4.50;99.90
18446;DHT22;9352;50.888;4.466;2024-02-28T00:17:08;4.50;99.90
18446;DHT22;9352;50.888;4.466;2024-02-28T00:19:35;4.40;99.90
18446;DHT22;9352;50.888;4.466;2024-02-28T00:45:38;4.40;99.90
18446;DHT22;9352;50.888;4.466;2024-02-28T00:48:06;4.30;99.90
18446;DHT22;9352;50.888;4.466;2024-02-28T00:50:32;4.20;99.90
18446;DHT22;9352;50.888;4.466;2024-02-28T00:52:59;4.20;99.90
18446;DHT22;9352;50.888;4.466;2024-02-28T00:55:26;4.20;99.90
18446;DHT22;9352;50.888;4.466;2024-02-28T00:57:53;4.10;99.90
18446;DHT22;9352;50.888;4.466;2024-02-28T01:00:20;4.10;99.90
18446;DHT22;9352;50.888;4.466;2024-02-28T01:02:48;4.00;99.90
18446;DHT22;9352;50.888;4.466;2024-02-28T01:05:15;4.00;99.90
18446;DHT22;9352;50.888;4.466;2024-02-28T01:07:42;3.90;99.90
18446;DHT22;9352;50.888;4.466;2024-02-28T01:10:09;3.90;99.90
18446;DHT22;9352;50.888;4.466;2024-02-28T01:12:36;3.80;99.90
18446;DHT22;9352;50.888;4.466;2024-02-28T01:15:04;3.80;99.90
18446;DHT22;9352;50.888;4.466;2024-02-28T01:17:31;3.70;99.90
18446;DHT22;9352;50.888;4.466;2024-02-28T01:19:59;3.70;99.90
18446;DHT22;9352;50.888;4.466;2024-02-28T01:22:26;3.70;99.90
18446;DHT22;9352;50.888;4.466;2024-02-28T01:24:53;3.60;99.90
18446;DHT22;9352;50.888;4.466;2024-02-28T01:27:20;3.60;99.90
18446;DHT22;9352;50.888;4.466;2024-02-28T01:29:46;3.60;99.90
18446;DHT22;9352;50.888;4.466;2024-02-28T01:32:13;3.50;99.90
18446;DHT22;9352;50.888;4.466;2024-02-28T01:34:40;3.60;99.90
18446;DHT22;9352;50.888;4.466;2024-02-28T01:37:08;3.50;99.90
18446;DHT22;9352;50.888;4.466;2024-02-28T01:39:35;3.50;99.90
18446;DHT22;9352;50.888;4.466;2024-02-28T01:42:02;3.50;99.90
18446;DHT22;9352;50.888;4.466;2024-02-28T01:44:29;3.50;99.90
18446;DHT22;9352;50.888;4.466;2024-02-28T01:46:56;3.50;99.90
18446;DHT22;9352;50.888;4.466;2024-02-28T01:49:24;3.40;99.90
18446;DHT22;9352;50.888;4.466;2024-02-28T01:51:53;3.40;99.90
18446;DHT22;9352;50.888;4.466;2024-02-28T01:54:23;3.40;99.90
18446;DHT22;9352;50.888;4.466;2024-02-28T01:56:50;3.50;99.90
18446;DHT22;9352;50.888;4.466;2024-02-28T01:59:18;3.50;99.90
18446;DHT22;9352;50.888;4.466;2024-02-28T02:01:47;3.50;99.90
18446;DHT22;9352;50.888;4.466;2024-02-28T02:04:14;3.60;99.90
18446;DHT22;9352;50.888;4.466;2024-02-28T02:06:43;3.60;99.90
18446;DHT22;9352;50.888;4.466;2024-02-28T02:09:10;3.50;99.90
18446;DHT22;9352;50.888;4.466;2024-02-28T02:11:39;3.50;99.90
18446;DHT22;9352;50.888;4.466;2024-02-28T02:14:06;3.50;99.90
18446;DHT22;9352;50.888;4.466;2024-02-28T02:16:33;3.50;99.90
18446;DHT22;9352;50.888;4.466;2024-02-28T02:19:00;3.40;99.90
18446;DHT22;9352;50.888;4.466;2024-02-28T02:21:30;3.40;99.90
18446;DHT22;9352;50.888;4.466;2024-02-28T02:23:59;3.40;99.90
18446;DHT22;9352;50.888;4.466;2024-02-28T02:26:26;3.40;99.90
18446;DHT22;9352;50.888;4.466;2024-02-28T02:28:52;3.40;99.90
18446;DHT22;9352;50.888;4.466;2024-02-28T02:31:19;3.40;99.90
18446;DHT22;9352;50.888;4.466;2024-02-28T02:33:46;3.30;99.90
18446;DHT22;9352;50.888;4.466;2024-02-28T02:36:13;3.30;99.90
18446;DHT22;9352;50.888;4.466;2024-02-28T02:38:40;3.30;99.90
18446;DHT22;9352;50.888;4.466;2024-02-28T02:41:08;3.30;99.90
18446;DHT22;9352;50.888;4.466;2024-02-28T02:43:35;3.30;99.90
18446;DHT22;9352;50.888;4.466;2024-02-28T02:46:02;3.20;99.90
18446;DHT22;9352;50.888;4.466;2024-02-28T02:48:29;3.10;99.90
18446;DHT22;9352;50.888;4.466;2024-02-28T02:50:56;3.10;99.90
18446;DHT22;9352;50.888;4.466;2024-02-28T02:53:23;3.10;99.90
18446;DHT22;9352;50.888;4.466;2024-02-28T02:55:50;3.00;99.90
18446;DHT22;9352;50.888;4.466;2024-02-28T02:58:18;3.00;99.90
18446;DHT22;9352;50.888;4.466;2024-02-28T03:00:47;3.00;99.90
18446;DHT22;9352;50.888;4.466;2024-02-28T03:03:15;2.90;99.90
18446;DHT22;9352;50.888;4.466;2024-02-28T03:05:42;2.90;99.90
18446;DHT22;9352;50.888;4.466;2024-02-28T03:08:09;2.90;99.90
18446;DHT22;9352;50.888;4.466;2024-02-28T03:10:36;2.90;99.90
18446;DHT22;9352;50.888;4.466;2024-02-28T03:13:03;2.90;99.90
18446;DHT22;9352;50.888;4.466;2024-02-28T03:15:33;2.90;99.90
18446;DHT22;9352;50.888;4.466;2024-02-28T03:18:00;2.90;99.90
18446;DHT22;9352;50.888;4.466;2024-02-28T03:20:27;2.80;99.90
18446;DHT22;9352;50.888;4.466;2024-02-28T03:22:54;2.80;99.90
18446;DHT22;9352;50.888;4.466;2024-02-28T03:25:21;2.90;99.90
18446;DHT22;9352;50.888;4.466;2024-02-28T03:27:48;2.80;99.90
18446;DHT22;9352;50.888;4.466;2024-02-28T03:30:15;2.80;99.90
18446;DHT22;9352;50.888;4.466;2024-02-28T03:32:43;2.80;99.90
18446;DHT22;9352;50.888;4.466;2024-02-28T03:35:13;2.80;99.90
18446;DHT22;9352;50.888;4.466;2024-02-28T03:37:40;2.70;99.90
18446;DHT22;9352;50.888;4.466;2024-02-28T03:40:08;2.70;99.90
18446;DHT22;9352;50.888;4.466;2024-02-28T03:42:35;2.70;99.90
18446;DHT22;9352;50.888;4.466;2024-02-28T03:45:03;2.70;99.90
18446;DHT22;9352;50.888;4.466;2024-02-28T03:47:30;2.70;99.90
18446;DHT22;9352;50.888;4.466;2024-02-28T03:49:58;2.70;99.90
18446;DHT22;9352;50.888;4.466;2024-02-28T03:52:27;2.70;99.90
18446;DHT22;9352;50.888;4.466;2024-02-28T03:54:55;2.70;99.90
18446;DHT22;9352;50.888;4.466;2024-02-28T03:57:22;2.70;99.90
18446;DHT22;9352;50.888;4.466;2024-02-28T03:59:49;2.70;99.90
18446;DHT22;9352;50.888;4.466;2024-02-28T04:02:16;2.70;99.90
18446;DHT22;9352;50.888;4.466;2024-02-28T04:04:43;2.70;99.90
18446;DHT22;9352;50.888;4.466;2024-02-28T04:07:11;2.70;99.90
18446;DHT22;9352;50.888;4.466;2024-02-28T04:09:38;2.70;99.90
18446;DHT22;9352;50.888;4.466;2024-02-28T04:12:05;2.70;99.90
18446;DHT22;9352;50.888;4.466;2024-02-28T04:14:32;2.60;99.90
18446;DHT22;9352;50.888;4.466;2024-02-28T04:16:59;2.70;99.90
18446;DHT22;9352;50.888;4.466;2024-02-28T04:19:26;2.60;99.90
18446;DHT22;9352;50.888;4.466;2024-02-28T04:21:53;2.60;99.90
18446;DHT22;9352;50.888;4.466;2024-02-28T04:24:21;2.60;99.90
18446;DHT22;9352;50.888;4.466;2024-02-28T04:26:48;2.60;99.90
18446;DHT22;9352;50.888;4.466;2024-02-28T04:29:15;2.60;99.90
18446;DHT22;9352;50.888;4.466;2024-02-28T04:31:42;2.60;99.90
18446;DHT22;9352;50.888;4.466;2024-02-28T04:34:08;2.60;99.90
18446;DHT22;9352;50.888;4.466;2024-02-28T04:36:35;2.60;99.90
18446;DHT22;9352;50.888;4.466;2024-02-28T04:39:02;2.60;99.90
18446;DHT22;9352;50.888;4.466;2024-02-28T04:41:33;2.70;99.90
18446;DHT22;9352;50.888;4.466;2024-02-28T04:44:00;2.70;99.90
18446;DHT22;9352;50.888;4.466;2024-02-28T04:46:27;2.70;99.90
18446;DHT22;9352;50.888;4.466;2024-02-28T04:48:54;2.70;99.90
18446;DHT22;9352;50.888;4.466;2024-02-28T04:51:21;2.70;99.90
18446;DHT22;9352;50.888;4.466;2024-02-28T04:53:48;2.70;99.90
18446;DHT22;9352;50.888;4.466;2024-02-28T04:56:14;2.70;99.90
18446;DHT22;9352;50.888;4.466;2024-02-28T04:58:43;2.70;99.90
18446;DHT22;9352;50.888;4.466;2024-02-28T05:01:11;2.70;99.90
18446;DHT22;9352;50.888;4.466;2024-02-28T05:03:38;2.70;99.90
18446;DHT22;9352;50.888;4.466;2024-02-28T05:06:05;2.70;99.90
18446;DHT22;9352;50.888;4.466;2024-02-28T05:08:32;2.80;99.90
18446;DHT22;9352;50.888;4.466;2024-02-28T05:10:59;2.80;99.90
18446;DHT22;9352;50.888;4.466;2024-02-28T05:13:25;2.80;99.90
18446;DHT22;9352;50.888;4.466;2024-02-28T05:15:54;2.80;99.90
18446;DHT22;9352;50.888;4.466;2024-02-28T05:18:21;2.80;99.90
18446;DHT22;9352;50.888;4.466;2024-02-28T05:20:48;2.80;99.90
18446;DHT22;9352;50.888;4.466;2024-02-28T05:23:14;2.80;99.90
18446;DHT22;9352;50.888;4.466;2024-02-28T05:25:41;2.80;99.90
18446;DHT22;9352;50.888;4.466;2024-02-28T05:28:09;2.80;99.90
18446;DHT22;9352;50.888;4.466;2024-02-28T05:30:35;2.80;99.90
18446;DHT22;9352;50.888;4.466;2024-02-28T05:33:04;2.80;99.90
18446;DHT22;9352;50.888;4.466;2024-02-28T05:35:31;2.80;99.90
18446;DHT22;9352;50.888;4.466;2024-02-28T05:37:58;2.90;99.90
18446;DHT22;9352;50.888;4.466;2024-02-28T05:40:25;3.00;99.90
18446;DHT22;9352;50.888;4.466;2024-02-28T05:42:52;3.00;99.90
18446;DHT22;9352;50.888;4.466;2024-02-28T05:45:18;3.00;99.90
18446;DHT22;9352;50.888;4.466;2024-02-28T05:47:45;3.00;99.90
18446;DHT22;9352;50.888;4.466;2024-02-28T05:50:14;2.90;99.90
18446;DHT22;9352;50.888;4.466;2024-02-28T05:52:41;2.90;99.90
18446;DHT22;9352;50.888;4.466;2024-02-28T05:55:09;2.90;99.90
18446;DHT22;9352;50.888;4.466;2024-02-28T05:57:36;2.90;99.90
18446;DHT22;9352;50.888;4.466;2024-02-28T06:00:03;2.90;99.90
18446;DHT22;9352;50.888;4.466;2024-02-28T06:02:35;2.90;99.90
18446;DHT22;9352;50.888;4.466;2024-02-28T06:05:02;2.90;99.90
18446;DHT22;9352;50.888;4.466;2024-02-28T06:07:31;2.90;99.90
18446;DHT22;9352;50.888;4.466;2024-02-28T06:09:58;3.00;99.90
18446;DHT22;9352;50.888;4.466;2024-02-28T06:12:25;3.00;99.90
18446;DHT22;9352;50.888;4.466;2024-02-28T06:14:52;3.00;99.90
18446;DHT22;9352;50.888;4.466;2024-02-28T06:17:20;3.00;99.90
18446;DHT22;9352;50.888;4.466;2024-02-28T06:19:47;3.20;99.90
18446;DHT22;9352;50.888;4.466;2024-02-28T06:22:14;3.50;99.90
18446;DHT22;9352;50.888;4.466;2024-02-28T06:24:42;3.50;99.90
18446;DHT22;9352;50.888;4.466;2024-02-28T06:27:09;3.40;99.90
18446;DHT22;9352;50.888;4.466;2024-02-28T06:29:38;3.40;99.90
18446;DHT22;9352;50.888;4.466;2024-02-28T06:32:05;3.40;99.90
18446;DHT22;9352;50.888;4.466;2024-02-28T06:34:32;3.40;99.90
18446;DHT22;9352;50.888;4.466;2024-02-28T06:36:59;3.50;99.90
18446;DHT22;9352;50.888;4.466;2024-02-28T06:39:26;3.60;99.90
18446;DHT22;9352;50.888;4.466;2024-02-28T06:41:54;3.70;99.90
18446;DHT22;9352;50.888;4.466;2024-02-28T06:44:21;3.80;99.90
18446;DHT22;9352;50.888;4.466;2024-02-28T06:46:48;3.80;99.90
18446;DHT22;9352;50.888;4.466;2024-02-28T06:49:14;3.90;99.90
18446;DHT22;9352;50.888;4.466;2024-02-28T06:51:42;4.10;99.90
18446;DHT22;9352;50.888;4.466;2024-02-28T06:54:09;4.20;99.90
18446;DHT22;9352;50.888;4.466;2024-02-28T06:56:37;4.20;99.90
18446;DHT22;9352;50.888;4.466;2024-02-28T06:59:05;4.30;99.90
18446;DHT22;9352;50.888;4.466;2024-02-28T07:01:32;4.40;99.90
18446;DHT22;9352;50.888;4.466;2024-02-28T07:03:59;4.50;99.90
18446;DHT22;9352;50.888;4.466;2024-02-28T07:06:26;4.60;99.90
18446;DHT22;9352;50.888;4.466;2024-02-28T07:08:53;4.70;99.90
18446;DHT22;9352;50.888;4.466;2024-02-28T07:11:20;4.80;99.90
18446;DHT22;9352;50.888;4.466;2024-02-28T07:13:47;4.90;99.90
18446;DHT22;9352;50.888;4.466;2024-02-28T07:16:15;5.00;99.90
18446;DHT22;9352;50.888;4.466;2024-02-28T07:18:42;5.10;99.90
18446;DHT22;9352;50.888;4.466;2024-02-28T07:21:09;5.20;99.90
18446;DHT22;9352;50.888;4.466;2024-02-28T07:23:39;5.30;99.90
18446;DHT22;9352;50.888;4.466;2024-02-28T07:26:05;5.30;99.90
18446;DHT22;9352;50.888;4.466;2024-02-28T07:28:32;5.40;99.90
18446;DHT22;9352;50.888;4.466;2024-02-28T07:30:59;5.50;99.90
18446;DHT22;9352;50.888;4.466;2024-02-28T07:33:27;5.60;99.90
18446;DHT22;9352;50.888;4.466;2024-02-28T07:35:54;5.70;99.90
18446;DHT22;9352;50.888;4.466;2024-02-28T07:38:26;5.80;99.90
18446;DHT22;9352;50.888;4.466;2024-02-28T07:40:53;5.90;99.90
18446;DHT22;9352;50.888;4.466;2024-02-28T07:43:20;5.90;99.90
18446;DHT22;9352;50.888;4.466;2024-02-28T07:45:47;5.90;99.90
18446;DHT22;9352;50.888;4.466;2024-02-28T07:48:14;6.00;99.90
18446;DHT22;9352;50.888;4.466;2024-02-28T07:50:44;6.10;99.90
18446;DHT22;9352;50.888;4.466;2024-02-28T07:53:11;6.20;99.90
18446;DHT22;9352;50.888;4.466;2024-02-28T07:55:38;6.30;99.90
18446;DHT22;9352;50.888;4.466;2024-02-28T07:58:05;6.40;99.90
18446;DHT22;9352;50.888;4.466;2024-02-28T08:00:32;6.40;99.90
18446;DHT22;9352;50.888;4.466;2024-02-28T08:02:59;6.60;99.90
18446;DHT22;9352;50.888;4.466;2024-02-28T08:05:26;6.60;99.90
18446;DHT22;9352;50.888;4.466;2024-02-28T08:07:54;6.80;99.90
18446;DHT22;9352;50.888;4.466;2024-02-28T08:10:21;6.90;99.90
18446;DHT22;9352;50.888;4.466;2024-02-28T08:12:49;7.00;99.90
18446;DHT22;9352;50.888;4.466;2024-02-28T08:15:16;7.10;99.90
18446;DHT22;9352;50.888;4.466;2024-02-28T08:17:43;7.30;99.90
18446;DHT22;9352;50.888;4.466;2024-02-28T08:20:10;7.40;99.90
18446;DHT22;9352;50.888;4.466;2024-02-28T08:22:37;7.40;99.90
18446;DHT22;9352;50.888;4.466;2024-02-28T08:25:06;7.40;99.90
18446;DHT22;9352;50.888;4.466;2024-02-28T08:27:36;7.50;99.90
18446;DHT22;9352;50.888;4.466;2024-02-28T08:30:05;7.50;99.90
18446;DHT22;9352;50.888;4.466;2024-02-28T08:32:32;7.60;99.90
18446;DHT22;9352;50.888;4.466;2024-02-28T08:34:59;7.60;99.90
18446;DHT22;9352;50.888;4.466;2024-02-28T08:37:26;7.70;99.90
18446;DHT22;9352;50.888;4.466;2024-02-28T08:39:54;7.80;99.90
18446;DHT22;9352;50.888;4.466;2024-02-28T08:42:24;7.80;99.90
18446;DHT22;9352;50.888;4.466;2024-02-28T08:44:51;7.90;99.90
18446;DHT22;9352;50.888;4.466;2024-02-28T08:47:22;8.00;99.90
18446;DHT22;9352;50.888;4.466;2024-02-28T08:49:50;8.00;99.90
18446;DHT22;9352;50.888;4.466;2024-02-28T08:52:17;8.10;99.90
18446;DHT22;9352;50.888;4.466;2024-02-28T08:54:44;8.10;99.90
18446;DHT22;9352;50.888;4.466;2024-02-28T08:57:11;8.10;99.90
18446;DHT22;9352;50.888;4.466;2024-02-28T08:59:39;8.20;99.90
18446;DHT22;9352;50.888;4.466;2024-02-28T09:02:06;8.20;99.90
18446;DHT22;9352;50.888;4.466;2024-02-28T09:04:33;8.20;99.90
18446;DHT22;9352;50.888;4.466;2024-02-28T09:07:00;8.20;99.90
18446;DHT22;9352;50.888;4.466;2024-02-28T09:09:27;8.20;99.90
18446;DHT22;9352;50.888;4.466;2024-02-28T09:11:55;8.20;99.90
18446;DHT22;9352;50.888;4.466;2024-02-28T09:14:22;8.20;99.90
18446;DHT22;9352;50.888;4.466;2024-02-28T09:16:50;8.20;99.90
18446;DHT22;9352;50.888;4.466;2024-02-28T09:19:19;8.10;99.90
18446;DHT22;9352;50.888;4.466;2024-02-28T09:21:46;8.10;99.90
18446;DHT22;9352;50.888;4.466;2024-02-28T09:24:13;8.10;99.90
18446;DHT22;9352;50.888;4.466;2024-02-28T09:26:40;8.20;99.90
18446;DHT22;9352;50.888;4.466;2024-02-28T09:29:07;8.10;99.90
18446;DHT22;9352;50.888;4.466;2024-02-28T09:31:34;8.20;99.90
18446;DHT22;9352;50.888;4.466;2024-02-28T09:34:02;8.20;99.90
18446;DHT22;9352;50.888;4.466;2024-02-28T09:36:40;8.20;99.90
18446;DHT22;9352;50.888;4.466;2024-02-28T09:39:07;8.30;99.90
18446;DHT22;9352;50.888;4.466;2024-02-28T09:41:34;8.20;99.90
18446;DHT22;9352;50.888;4.466;2024-02-28T09:44:02;8.30;99.90
18446;DHT22;9352;50.888;4.466;2024-02-28T09:46:29;8.30;99.90
18446;DHT22;9352;50.888;4.466;2024-02-28T09:48:57;8.40;99.90
18446;DHT22;9352;50.888;4.466;2024-02-28T09:51:27;8.50;99.90
18446;DHT22;9352;50.888;4.466;2024-02-28T09:53:54;8.50;99.90
18446;DHT22;9352;50.888;4.466;2024-02-28T09:56:23;8.60;99.90
18446;DHT22;9352;50.888;4.466;2024-02-28T09:58:51;8.70;99.90
18446;DHT22;9352;50.888;4.466;2024-02-28T10:01:19;8.70;99.90
18446;DHT22;9352;50.888;4.466;2024-02-28T10:03:48;8.80;99.90
18446;DHT22;9352;50.888;4.466;2024-02-28T10:06:17;8.80;99.90
18446;DHT22;9352;50.888;4.466;2024-02-28T10:08:45;8.90;99.90
18446;DHT22;9352;50.888;4.466;2024-02-28T10:11:17;8.90;99.90
18446;DHT22;9352;50.888;4.466;2024-02-28T10:13:46;9.00;99.90
18446;DHT22;9352;50.888;4.466;2024-02-28T10:16:13;9.00;99.90
18446;DHT22;9352;50.888;4.466;2024-02-28T10:18:42;9.20;99.90
18446;DHT22;9352;50.888;4.466;2024-02-28T10:21:09;9.30;99.90
18446;DHT22;9352;50.888;4.466;2024-02-28T10:23:36;9.40;99.90
18446;DHT22;9352;50.888;4.466;2024-02-28T10:26:05;9.60;99.90
18446;DHT22;9352;50.888;4.466;2024-02-28T10:28:31;9.80;99.90
18446;DHT22;9352;50.888;4.466;2024-02-28T10:30:58;9.90;99.90
18446;DHT22;9352;50.888;4.466;2024-02-28T10:33:27;10.00;99.90
18446;DHT22;9352;50.888;4.466;2024-02-28T10:35:55;10.20;99.90
18446;DHT22;9352;50.888;4.466;2024-02-28T10:38:23;10.40;99.90
18446;DHT22;9352;50.888;4.466;2024-02-28T10:40:53;10.50;99.90
18446;DHT22;9352;50.888;4.466;2024-02-28T10:43:22;10.50;99.90
18446;DHT22;9352;50.888;4.466;2024-02-28T10:45:51;10.50;99.90
18446;DHT22;9352;50.888;4.466;2024-02-28T10:48:18;10.60;99.90
18446;DHT22;9352;50.888;4.466;2024-02-28T10:50:47;10.70;99.90
18446;DHT22;9352;50.888;4.466;2024-02-28T10:53:14;10.80;99.90
18446;DHT22;9352;50.888;4.466;2024-02-28T10:55:42;11.00;99.90
18446;DHT22;9352;50.888;4.466;2024-02-28T10:58:14;11.10;99.90
18446;DHT22;9352;50.888;4.466;2024-02-28T11:00:43;11.20;99.90
18446;DHT22;9352;50.888;4.466;2024-02-28T11:03:13;11.20;99.90
18446;DHT22;9352;50.888;4.466;2024-02-28T11:05:42;11.20;99.90
18446;DHT22;9352;50.888;4.466;2024-02-28T11:08:11;11.20;99.90
18446;DHT22;9352;50.888;4.466;2024-02-28T11:10:40;11.10;99.90
18446;DHT22;9352;50.888;4.466;2024-02-28T11:13:08;11.10;99.90
18446;DHT22;9352;50.888;4.466;2024-02-28T11:15:36;11.10;99.90
18446;DHT22;9352;50.888;4.466;2024-02-28T11:18:11;11.00;99.90
18446;DHT22;9352;50.888;4.466;2024-02-28T11:20:39;10.90;99.90
18446;DHT22;9352;50.888;4.466;2024-02-28T11:23:06;10.80;99.90
18446;DHT22;9352;50.888;4.466;2024-02-28T11:25:34;10.90;99.90
18446;DHT22;9352;50.888;4.466;2024-02-28T11:28:01;10.90;99.90
18446;DHT22;9352;50.888;4.466;2024-02-28T11:30:28;10.90;99.90
18446;DHT22;9352;50.888;4.466;2024-02-28T11:32:55;10.80;99.90
18446;DHT22;9352;50.888;4.466;2024-02-28T11:35:26;10.80;99.90
18446;DHT22;9352;50.888;4.466;2024-02-28T11:37:54;10.80;99.90
18446;DHT22;9352;50.888;4.466;2024-02-28T11:40:23;10.90;99.90
18446;DHT22;9352;50.888;4.466;2024-02-28T11:42:50;11.00;99.90
18446;DHT22;9352;50.888;4.466;2024-02-28T11:45:17;11.20;99.90
18446;DHT22;9352;50.888;4.466;2024-02-28T11:47:45;11.20;99.90
18446;DHT22;9352;50.888;4.466;2024-02-28T11:50:13;11.20;99.90
18446;DHT22;9352;50.888;4.466;2024-02-28T11:52:43;11.10;99.90
18446;DHT22;9352;50.888;4.466;2024-02-28T11:55:10;11.10;99.90
18446;DHT22;9352;50.888;4.466;2024-02-28T11:57:37;11.20;99.90
18446;DHT22;9352;50.888;4.466;2024-02-28T12:00:06;11.20;99.90
18446;DHT22;9352;50.888;4.466;2024-02-28T12:02:34;11.20;99.90
18446;DHT22;9352;50.888;4.466;2024-02-28T12:05:03;11.20;99.90
18446;DHT22;9352;50.888;4.466;2024-02-28T12:07:30;11.20;99.90
18446;DHT22;9352;50.888;4.466;2024-02-28T12:09:59;11.10;99.90
18446;DHT22;9352;50.888;4.466;2024-02-28T12:12:27;11.10;99.90
18446;DHT22;9352;50.888;4.466;2024-02-28T12:14:58;11.10;99.90
18446;DHT22;9352;50.888;4.466;2024-02-28T12:17:25;11.20;99.90
18446;DHT22;9352;50.888;4.466;2024-02-28T12:19:52;11.30;99.90
18446;DHT22;9352;50.888;4.466;2024-02-28T12:22:19;11.40;99.90
18446;DHT22;9352;50.888;4.466;2024-02-28T12:24:46;11.40;99.90
18446;DHT22;9352;50.888;4.466;2024-02-28T12:27:15;11.40;99.90
18446;DHT22;9352;50.888;4.466;2024-02-28T12:29:41;11.40;99.90
18446;DHT22;9352;50.888;4.466;2024-02-28T12:32:09;11.60;99.90
18446;DHT22;9352;50.888;4.466;2024-02-28T12:34:36;11.60;99.90
18446;DHT22;9352;50.888;4.466;2024-02-28T12:37:03;11.80;99.90
18446;DHT22;9352;50.888;4.466;2024-02-28T12:39:30;11.90;99.90
18446;DHT22;9352;50.888;4.466;2024-02-28T12:41:59;12.00;99.90
18446;DHT22;9352;50.888;4.466;2024-02-28T12:44:30;12.10;99.90
18446;DHT22;9352;50.888;4.466;2024-02-28T12:46:57;12.10;99.90
18446;DHT22;9352;50.888;4.466;2024-02-28T12:49:24;12.10;99.90
18446;DHT22;9352;50.888;4.466;2024-02-28T12:51:51;12.10;99.90
18446;DHT22;9352;50.888;4.466;2024-02-28T12:54:18;12.10;99.90
18446;DHT22;9352;50.888;4.466;2024-02-28T12:56:46;12.00;99.90
18446;DHT22;9352;50.888;4.466;2024-02-28T12:59:14;11.90;99.90
18446;DHT22;9352;50.888;4.466;2024-02-28T13:01:42;12.00;99.90
18446;DHT22;9352;50.888;4.466;2024-02-28T13:04:09;12.00;99.90
18446;DHT22;9352;50.888;4.466;2024-02-28T13:06:37;12.00;99.90
18446;DHT22;9352;50.888;4.466;2024-02-28T13:09:05;11.90;99.90
18446;DHT22;9352;50.888;4.466;2024-02-28T13:11:38;11.90;99.90
18446;DHT22;9352;50.888;4.466;2024-02-28T13:14:05;11.80;99.90
18446;DHT22;9352;50.888;4.466;2024-02-28T13:16:33;11.90;99.90
18446;DHT22;9352;50.888;4.466;2024-02-28T13:19:02;11.90;99.90
18446;DHT22;9352;50.888;4.466;2024-02-28T13:21:30;11.80;99.90
18446;DHT22;9352;50.888;4.466;2024-02-28T13:24:01;11.80;99.90
18446;DHT22;9352;50.888;4.466;2024-02-28T13:26:28;11.80;99.90
18446;DHT22;9352;50.888;4.466;2024-02-28T13:28:55;11.80;99.90
18446;DHT22;9352;50.888;4.466;2024-02-28T13:31:22;11.90;99.90
18446;DHT22;9352;50.888;4.466;2024-02-28T13:33:49;12.00;99.90
18446;DHT22;9352;50.888;4.466;2024-02-28T13:36:28;12.20;99.90
18446;DHT22;9352;50.888;4.466;2024-02-28T13:38:58;12.30;99.90
18446;DHT22;9352;50.888;4.466;2024-02-28T13:41:40;12.40;99.90
18446;DHT22;9352;50.888;4.466;2024-02-28T13:44:16;12.40;99.90
18446;DHT22;9352;50.888;4.466;2024-02-28T13:46:42;12.40;99.90
18446;DHT22;9352;50.888;4.466;2024-02-28T13:49:09;12.40;99.90
18446;DHT22;9352;50.888;4.466;2024-02-28T13:51:38;12.50;99.90
18446;DHT22;9352;50.888;4.466;2024-02-28T13:54:05;12.70;99.90
18446;DHT22;9352;50.888;4.466;2024-02-28T13:56:32;12.80;99.90
18446;DHT22;9352;50.888;4.466;2024-02-28T13:59:00;12.80;99.90
18446;DHT22;9352;50.888;4.466;2024-02-28T14:01:35;12.90;99.90
18446;DHT22;9352;50.888;4.466;2024-02-28T14:04:39;12.80;99.90
18446;DHT22;9352;50.888;4.466;2024-02-28T14:07:55;12.80;99.90
18446;DHT22;9352;50.888;4.466;2024-02-28T14:10:23;12.70;99.90
18446;DHT22;9352;50.888;4.466;2024-02-28T14:12:50;12.70;99.90
18446;DHT22;9352;50.888;4.466;2024-02-28T14:15:21;12.60;99.90
18446;DHT22;9352;50.888;4.466;2024-02-28T14:17:48;12.70;99.90
18446;DHT22;9352;50.888;4.466;2024-02-28T14:20:15;12.70;99.90
18446;DHT22;9352;50.888;4.466;2024-02-28T14:22:43;12.70;99.90
18446;DHT22;9352;50.888;4.466;2024-02-28T14:32:04;13.00;99.90
18446;DHT22;9352;50.888;4.466;2024-02-28T14:34:32;13.00;99.90
18446;DHT22;9352;50.888;4.466;2024-02-28T14:36:59;12.90;99.90
18446;DHT22;9352;50.888;4.466;2024-02-28T14:39:26;13.00;99.90
18446;DHT22;9352;50.888;4.466;2024-02-28T14:41:53;12.90;99.90
18446;DHT22;9352;50.888;4.466;2024-02-28T14:44:20;12.70;99.90
18446;DHT22;9352;50.888;4.466;2024-02-28T14:46:47;12.70;99.90
18446;DHT22;9352;50.888;4.466;2024-02-28T14:49:16;12.70;99.90
18446;DHT22;9352;50.888;4.466;2024-02-28T14:51:43;12.80;99.90
18446;DHT22;9352;50.888;4.466;2024-02-28T14:54:14;12.80;99.90
18446;DHT22;9352;50.888;4.466;2024-02-28T14:56:42;12.60;99.90
18446;DHT22;9352;50.888;4.466;2024-02-28T14:59:09;12.40;99.90
18446;DHT22;9352;50.888;4.466;2024-02-28T15:01:40;12.20;99.90
18446;DHT22;9352;50.888;4.466;2024-02-28T15:04:07;12.20;99.90
18446;DHT22;9352;50.888;4.466;2024-02-28T15:10:10;12.00;99.90
18446;DHT22;9352;50.888;4.466;2024-02-28T15:12:42;12.10;99.90
18446;DHT22;9352;50.888;4.466;2024-02-28T15:15:11;12.00;99.90
18446;DHT22;9352;50.888;4.466;2024-02-28T15:17:42;12.00;99.90
18446;DHT22;9352;50.888;4.466;2024-02-28T15:20:10;12.20;99.90
18446;DHT22;9352;50.888;4.466;2024-02-28T15:22:37;12.30;99.90
18446;DHT22;9352;50.888;4.466;2024-02-28T15:25:05;12.40;99.90
18446;DHT22;9352;50.888;4.466;2024-02-28T15:27:34;12.50;99.90
18446;DHT22;9352;50.888;4.466;2024-02-28T15:30:01;12.50;99.90
18446;DHT22;9352;50.888;4.466;2024-02-28T15:32:30;12.50;99.90
18446;DHT22;9352;50.888;4.466;2024-02-28T15:35:08;12.50;99.90
18446;DHT22;9352;50.888;4.466;2024-02-28T15:37:35;12.30;99.90
18446;DHT22;9352;50.888;4.466;2024-02-28T15:40:29;12.10;99.90
18446;DHT22;9352;50.888;4.466;2024-02-28T15:42:57;11.90;99.90
18446;DHT22;9352;50.888;4.466;2024-02-28T15:45:25;11.80;99.90
18446;DHT22;9352;50.888;4.466;2024-02-28T15:47:52;11.70;99.90
18446;DHT22;9352;50.888;4.466;2024-02-28T15:50:22;11.70;99.90
18446;DHT22;9352;50.888;4.466;2024-02-28T15:52:49;11.60;99.90
18446;DHT22;9352;50.888;4.466;2024-02-28T15:55:16;11.60;99.90
18446;DHT22;9352;50.888;4.466;2024-02-28T15:57:47;11.50;99.90
18446;DHT22;9352;50.888;4.466;2024-02-28T16:00:16;11.50;99.90
18446;DHT22;9352;50.888;4.466;2024-02-28T16:02:43;11.50;99.90
18446;DHT22;9352;50.888;4.466;2024-02-28T16:05:10;11.50;99.90
18446;DHT22;9352;50.888;4.466;2024-02-28T16:07:40;11.50;99.90
18446;DHT22;9352;50.888;4.466;2024-02-28T16:10:08;11.40;99.90
18446;DHT22;9352;50.888;4.466;2024-02-28T16:12:35;11.30;99.90
18446;DHT22;9352;50.888;4.466;2024-02-28T16:15:02;11.30;99.90
18446;DHT22;9352;50.888;4.466;2024-02-28T16:17:32;11.20;99.90
18446;DHT22;9352;50.888;4.466;2024-02-28T16:19:59;11.20;99.90
18446;DHT22;9352;50.888;4.466;2024-02-28T16:22:27;11.10;99.90
18446;DHT22;9352;50.888;4.466;2024-02-28T16:24:54;11.00;99.90
18446;DHT22;9352;50.888;4.466;2024-02-28T16:27:21;11.00;99.90
18446;DHT22;9352;50.888;4.466;2024-02-28T16:29:48;11.00;99.90
18446;DHT22;9352;50.888;4.466;2024-02-28T16:32:16;10.90;99.90
18446;DHT22;9352;50.888;4.466;2024-02-28T16:34:45;10.90;99.90